createdAt,value
2022-10-06T00:00:53.688Z,100741.13
2022-10-06T00:03:23.994Z,100738.56
2022-10-06T00:05:52.565Z,100739.59
2022-10-06T00:08:20.514Z,100728.59
2022-10-06T00:10:49.914Z,100736.94
2022-10-06T00:13:17.830Z,100741.03
2022-10-06T00:15:45.777Z,100745.34
2022-10-06T00:18:13.736Z,100741.13
2022-10-06T00:20:43.435Z,100750.75
2022-10-06T00:23:11.639Z,100749.25
2022-10-06T00:25:39.933Z,100746.53
2022-10-06T00:28:10.094Z,100753.13
2022-10-06T00:30:38.094Z,100753.41
2022-10-06T00:33:06.106Z,100754.28
2022-10-06T00:35:38.019Z,100756.06
2022-10-06T00:38:06.268Z,100753.34
2022-10-06T00:40:34.924Z,100759.56
2022-10-06T00:43:05.187Z,100759.69
2022-10-06T00:45:38.761Z,100763.28
2022-10-06T00:48:11.680Z,100758.88
2022-10-06T00:50:40.750Z,100759.03
2022-10-06T00:53:09.155Z,100763.38
2022-10-06T00:55:37.070Z,100754.72
2022-10-06T00:58:06.562Z,100763.56
2022-10-06T01:00:35.930Z,100761.75
2022-10-06T01:03:08.630Z,100761.06
2022-10-06T01:05:42.552Z,100756.81
2022-10-06T01:08:10.718Z,100755.88
2022-10-06T01:10:38.843Z,100757.06
2022-10-06T01:13:07.725Z,100753.41
2022-10-06T01:15:40.184Z,100751.56
2022-10-06T01:18:13.897Z,100748.63
2022-10-06T01:20:45.336Z,100748.63
2022-10-06T01:23:15.399Z,100750.88
2022-10-06T01:25:43.866Z,100748.59
2022-10-06T01:28:14.121Z,100746.16
2022-10-06T01:30:51.052Z,100741.03
2022-10-06T01:33:19.784Z,100746.06
2022-10-06T01:35:50.316Z,100740.56
2022-10-06T01:38:22.076Z,100739.56
2022-10-06T01:40:52.310Z,100753.75
2022-10-06T01:43:20.325Z,100747.69
2022-10-06T01:45:54.314Z,100739.84
2022-10-06T01:48:22.698Z,100740.97
2022-10-06T01:50:50.780Z,100731.13
2022-10-06T01:53:20.403Z,100732.19
2022-10-06T01:55:48.402Z,100725.25
2022-10-06T01:58:16.356Z,100726.81
2022-10-06T02:00:44.447Z,100724.19
2022-10-06T02:03:12.637Z,100728.88
2022-10-06T02:05:40.589Z,100729.59
2022-10-06T02:08:09.634Z,100735.59
2022-10-06T02:10:41.793Z,100732.09
2022-10-06T02:13:09.817Z,100732.03
2022-10-06T02:15:37.912Z,100733.69
2022-10-06T02:18:05.931Z,100732.81
2022-10-06T02:20:34.906Z,100728.34
2022-10-06T02:23:02.948Z,100725.31
2022-10-06T02:25:30.902Z,100727.84
2022-10-06T02:28:00.652Z,100732.16
2022-10-06T02:30:28.670Z,100731.00
2022-10-06T02:32:56.684Z,100729.03
2022-10-06T02:35:24.696Z,100727.06
2022-10-06T02:37:52.688Z,100728.53
2022-10-06T02:40:20.629Z,100720.03
2022-10-06T02:42:49.022Z,100721.91
2022-10-06T02:45:18.484Z,100722.22
2022-10-06T02:47:46.538Z,100733.03
2022-10-06T02:50:15.014Z,100726.06
2022-10-06T02:52:43.519Z,100727.97
2022-10-06T02:55:12.057Z,100732.38
2022-10-06T02:57:40.082Z,100727.16
2022-10-06T03:00:09.527Z,100720.03
2022-10-06T03:02:39.151Z,100729.06
2022-10-06T03:05:07.665Z,100722.09
2022-10-06T03:07:35.613Z,100735.38
2022-10-06T03:10:03.652Z,100726.78
2022-10-06T03:12:32.934Z,100728.75
2022-10-06T03:15:00.873Z,100727.94
2022-10-06T03:17:28.914Z,100722.72
2022-10-06T03:19:58.258Z,100730.56
2022-10-06T03:22:26.254Z,100727.72
2022-10-06T03:24:54.231Z,100722.72
2022-10-06T03:27:22.193Z,100719.31
2022-10-06T03:29:50.178Z,100718.44
2022-10-06T03:32:18.155Z,100720.94
2022-10-06T03:34:46.864Z,100721.97
2022-10-06T03:37:19.153Z,100721.81
2022-10-06T03:39:47.625Z,100723.16
2022-10-06T03:42:15.596Z,100720.22
2022-10-06T03:44:43.648Z,100728.88
2022-10-06T03:47:16.840Z,100722.13
2022-10-06T03:49:45.295Z,100724.06
2022-10-06T03:52:13.208Z,100723.97
2022-10-06T03:54:42.617Z,100725.84
2022-10-06T03:57:10.571Z,100724.25
2022-10-06T03:59:38.629Z,100729.31
2022-10-06T04:02:06.631Z,100731.28
2022-10-06T04:04:34.578Z,100729.66
2022-10-06T04:07:02.496Z,100729.81
2022-10-06T04:09:33.296Z,100729.06
2022-10-06T04:12:02.702Z,100733.34
2022-10-06T04:14:30.684Z,100732.72
2022-10-06T04:17:01.593Z,100734.50
2022-10-06T04:19:29.573Z,100740.03
2022-10-06T04:21:57.589Z,100735.47
2022-10-06T04:24:25.673Z,100742.63
2022-10-06T04:26:53.783Z,100744.34
2022-10-06T04:29:23.512Z,100747.66
2022-10-06T04:31:51.633Z,100750.41
2022-10-06T04:34:19.635Z,100748.75
2022-10-06T04:36:47.565Z,100745.78
2022-10-06T04:39:15.525Z,100743.88
2022-10-06T04:41:47.451Z,100757.31
2022-10-06T04:44:15.528Z,100752.22
2022-10-06T04:46:45.463Z,100749.53
2022-10-06T04:49:19.412Z,100751.72
2022-10-06T04:51:50.686Z,100746.41
2022-10-06T04:54:19.702Z,100743.97
2022-10-06T04:56:47.763Z,100741.84
2022-10-06T04:59:15.729Z,100749.22
2022-10-06T05:01:45.924Z,100747.03
2022-10-06T05:04:13.891Z,100746.22
2022-10-06T05:06:43.549Z,100754.06
2022-10-06T05:09:13.130Z,100749.97
2022-10-06T05:11:41.115Z,100750.94
2022-10-06T05:14:09.119Z,100741.72
2022-10-06T05:16:38.261Z,100751.44
2022-10-06T05:19:08.303Z,100747.84
2022-10-06T05:21:36.676Z,100741.19
2022-10-06T05:24:04.972Z,100750.44
2022-10-06T05:26:34.855Z,100743.59
2022-10-06T05:29:03.433Z,100742.34
2022-10-06T05:31:32.937Z,100740.25
2022-10-06T05:34:01.482Z,100734.50
2022-10-06T05:36:34.043Z,100729.63
2022-10-06T05:39:02.813Z,100725.38
2022-10-06T05:41:32.601Z,100732.59
2022-10-06T05:44:00.619Z,100730.34
2022-10-06T05:46:30.362Z,100736.00
2022-10-06T05:49:00.351Z,100740.22
2022-10-06T05:51:32.443Z,100750.06
2022-10-06T05:54:01.199Z,100739.19
2022-10-06T05:56:30.969Z,100733.41
2022-10-06T05:59:00.148Z,100738.72
2022-10-06T06:01:30.129Z,100745.34
2022-10-06T06:04:00.352Z,100739.59
2022-10-06T06:06:31.804Z,100736.19
2022-10-06T06:09:01.580Z,100733.78
2022-10-06T06:11:31.646Z,100732.16
2022-10-06T06:14:02.102Z,100739.63
2022-10-06T06:16:31.122Z,100735.19
2022-10-06T06:18:59.868Z,100739.94
2022-10-06T06:21:28.948Z,100739.22
2022-10-06T06:23:58.789Z,100743.94
2022-10-06T06:26:28.949Z,100743.00
2022-10-06T06:29:04.083Z,100746.84
2022-10-06T06:31:34.017Z,100746.19
2022-10-06T06:34:04.963Z,100747.34
2022-10-06T06:36:35.862Z,100742.28
2022-10-06T06:39:07.854Z,100752.25
2022-10-06T06:41:38.278Z,100755.13
2022-10-06T06:44:08.277Z,100752.63
2022-10-06T06:46:39.021Z,100749.16
2022-10-06T06:49:08.239Z,100755.47
2022-10-06T06:51:38.410Z,100751.44
2022-10-06T06:54:08.708Z,100751.56
2022-10-06T06:56:38.729Z,100758.59
2022-10-06T06:59:11.753Z,100761.44
2022-10-06T07:01:46.020Z,100757.97
2022-10-06T07:04:15.896Z,100761.38
2022-10-06T07:06:57.024Z,100765.81
2022-10-06T07:09:27.321Z,100768.53
2022-10-06T07:11:56.152Z,100764.97
2022-10-06T07:14:24.479Z,100771.44
2022-10-06T07:17:10.171Z,100774.28
2022-10-06T07:19:52.181Z,100778.75
2022-10-06T07:22:41.037Z,100778.22
2022-10-06T07:25:20.455Z,100785.91
2022-10-06T07:27:52.460Z,100779.31
2022-10-06T07:30:23.124Z,100783.78
2022-10-06T07:32:52.597Z,100783.97
2022-10-06T07:35:22.183Z,100794.59
2022-10-06T07:37:51.373Z,100791.75
2022-10-06T07:40:20.771Z,100796.72
2022-10-06T07:42:52.334Z,100801.25
2022-10-06T07:45:42.219Z,100791.94
2022-10-06T07:48:14.438Z,100793.94
2022-10-06T07:50:43.225Z,100797.88
2022-10-06T07:53:11.273Z,100802.00
2022-10-06T07:55:42.018Z,100812.94
2022-10-06T07:58:14.106Z,100801.81
2022-10-06T08:00:42.798Z,100813.44
2022-10-06T08:03:12.405Z,100813.41
2022-10-06T08:05:40.385Z,100815.22
2022-10-06T08:08:08.418Z,100812.81
2022-10-06T08:10:37.181Z,100819.84
2022-10-06T08:13:10.423Z,100818.25
2022-10-06T08:15:38.934Z,100812.13
2022-10-06T08:18:21.277Z,100819.91
2022-10-06T08:20:49.598Z,100822.56
2022-10-06T08:23:17.755Z,100822.97
2022-10-06T08:25:51.842Z,100824.78
2022-10-06T08:28:22.267Z,100826.03
2022-10-06T08:30:51.470Z,100824.53
2022-10-06T08:33:21.595Z,100824.50
2022-10-06T08:35:49.659Z,100827.03
2022-10-06T08:38:18.185Z,100830.75
2022-10-06T08:40:48.015Z,100826.59
2022-10-06T08:43:23.179Z,100829.66
2022-10-06T08:45:59.708Z,100826.25
2022-10-06T08:48:30.035Z,100848.91
2022-10-06T08:51:09.874Z,100837.88
2022-10-06T08:53:47.134Z,100830.34
2022-10-06T08:56:19.230Z,100827.09
2022-10-06T08:58:54.464Z,100829.50
2022-10-06T09:01:26.103Z,100833.09
2022-10-06T09:04:01.928Z,100831.41
2022-10-06T09:06:45.655Z,100826.66
2022-10-06T09:09:36.157Z,100823.38
2022-10-06T09:12:12.763Z,100816.91
2022-10-06T09:14:45.343Z,100826.34
2022-10-06T09:17:20.029Z,100823.59
2022-10-06T09:19:54.987Z,100832.63
2022-10-06T09:22:24.902Z,100831.59
2022-10-06T09:24:58.315Z,100828.19
2022-10-06T09:27:32.429Z,100829.13
2022-10-06T09:30:02.584Z,100818.50
2022-10-06T09:32:33.361Z,100831.56
2022-10-06T09:35:04.546Z,100835.22
2022-10-06T09:37:54.221Z,100832.16
2022-10-06T09:40:36.631Z,100838.69
2022-10-06T09:43:06.822Z,100833.53
2022-10-06T09:45:34.899Z,100832.13
2022-10-06T09:48:24.663Z,100838.94
2022-10-06T09:51:09.248Z,100834.91
2022-10-06T09:53:39.153Z,100828.38
2022-10-06T09:56:15.330Z,100831.03
2022-10-06T09:58:56.468Z,100825.38
2022-10-06T10:01:27.301Z,100827.56
2022-10-06T10:04:20.680Z,100826.22
2022-10-06T10:06:49.105Z,100825.75
2022-10-06T10:09:28.989Z,100820.06
2022-10-06T10:12:31.287Z,100820.19
2022-10-06T10:15:04.094Z,100816.56
2022-10-06T10:17:49.228Z,100818.41
2022-10-06T10:20:36.910Z,100819.31
2022-10-06T10:23:18.504Z,100821.38
2022-10-06T10:25:58.610Z,100811.47
2022-10-06T10:28:51.703Z,100815.63
2022-10-06T10:31:31.376Z,100815.91
2022-10-06T10:34:23.934Z,100815.94
2022-10-06T10:36:58.471Z,100813.91
2022-10-06T10:39:34.760Z,100810.28
2022-10-06T10:42:06.705Z,100808.81
2022-10-06T10:44:38.819Z,100800.25
2022-10-06T10:47:16.423Z,100803.13
2022-10-06T10:49:49.576Z,100802.44
2022-10-06T10:52:22.918Z,100799.78
2022-10-06T10:55:04.518Z,100800.59
2022-10-06T10:57:38.664Z,100801.53
2022-10-06T11:00:09.730Z,100800.69
2022-10-06T11:02:38.417Z,100793.41
2022-10-06T11:05:16.451Z,100793.69
2022-10-06T11:07:52.389Z,100784.00
2022-10-06T11:10:24.410Z,100793.53
2022-10-06T11:13:12.096Z,100786.56
2022-10-06T11:15:52.003Z,100783.19
2022-10-06T11:18:36.596Z,100785.13
2022-10-06T11:21:11.617Z,100788.66
2022-10-06T11:23:50.963Z,100786.91
2022-10-06T11:26:35.978Z,100775.22
2022-10-06T11:29:20.667Z,100773.22
2022-10-06T11:32:02.570Z,100768.63
2022-10-06T11:34:30.661Z,100771.16
2022-10-06T11:37:07.642Z,100765.25
2022-10-06T11:39:47.989Z,100767.16
2022-10-06T11:42:23.893Z,100768.22
2022-10-06T11:45:00.432Z,100767.38
2022-10-06T11:47:36.210Z,100771.47
2022-10-06T11:50:33.496Z,100766.06
2022-10-06T11:53:03.079Z,100763.31
2022-10-06T11:55:31.186Z,100753.16
2022-10-06T11:58:40.768Z,100751.78
2022-10-06T12:00:58.939Z,100747.44
2022-10-06T12:04:07.556Z,100750.09
2022-10-06T12:07:02.873Z,100744.69
2022-10-06T12:09:53.027Z,100737.88
2022-10-06T12:13:01.768Z,100732.81
2022-10-06T12:17:06.074Z,100721.81
2022-10-06T12:19:00.188Z,100714.13
2022-10-06T12:21:44.976Z,100720.31
2022-10-06T12:24:29.133Z,100718.25
2022-10-06T12:27:23.440Z,100715.59
2022-10-06T12:30:02.263Z,100710.53
2022-10-06T12:32:46.887Z,100710.22
2022-10-06T12:35:29.790Z,100709.47
2022-10-06T12:38:00.555Z,100708.66
2022-10-06T12:40:52.544Z,100701.53
2022-10-06T12:43:53.881Z,100691.88
2022-10-06T12:46:27.021Z,100692.81
2022-10-06T12:49:08.746Z,100692.09
2022-10-06T12:51:40.923Z,100689.72
2022-10-06T12:54:20.391Z,100684.44
2022-10-06T12:57:01.293Z,100689.75
2022-10-06T12:59:32.091Z,100690.56
2022-10-06T13:02:02.692Z,100680.63
2022-10-06T13:04:37.659Z,100683.06
2022-10-06T13:07:12.800Z,100680.47
2022-10-06T13:09:41.784Z,100683.97
2022-10-06T13:12:27.438Z,100677.91
2022-10-06T13:15:27.924Z,100675.22
2022-10-06T13:17:58.965Z,100671.66
2022-10-06T13:20:40.496Z,100664.56
2022-10-06T13:23:23.389Z,100669.63
2022-10-06T13:25:55.542Z,100655.34
2022-10-06T13:28:31.633Z,100654.47
2022-10-06T13:33:39.247Z,100658.50
2022-10-06T13:36:09.084Z,100654.09
2022-10-06T13:38:38.913Z,100649.81
2022-10-06T13:41:18.899Z,100642.66
2022-10-06T13:43:51.181Z,100640.88
2022-10-06T13:46:21.892Z,100643.59
2022-10-06T13:48:53.796Z,100639.19
2022-10-06T13:51:26.025Z,100635.66
2022-10-06T13:53:54.475Z,100636.53
2022-10-06T13:56:41.279Z,100631.09
2022-10-06T13:59:29.546Z,100634.66
2022-10-06T14:01:58.892Z,100630.84
2022-10-06T14:04:26.910Z,100628.25
2022-10-06T14:06:57.375Z,100625.69
2022-10-06T14:09:27.784Z,100630.09
2022-10-06T14:12:04.128Z,100634.50
2022-10-06T14:14:34.379Z,100625.59
2022-10-06T14:17:02.467Z,100624.88
2022-10-06T14:19:34.886Z,100623.06
2022-10-06T14:22:03.645Z,100616.03
2022-10-06T14:24:34.239Z,100626.75
2022-10-06T14:27:03.672Z,100616.09
2022-10-06T14:29:34.215Z,100615.19
2022-10-06T14:32:10.003Z,100623.22
2022-10-06T14:34:38.438Z,100614.34
2022-10-06T14:37:06.487Z,100610.75
2022-10-06T14:39:34.443Z,100609.88
2022-10-06T14:42:02.442Z,100609.91
2022-10-06T14:44:33.856Z,100609.00
2022-10-06T14:47:01.810Z,100603.69
2022-10-06T14:49:29.794Z,100599.22
2022-10-06T14:51:57.815Z,100600.94
2022-10-06T14:54:25.768Z,100610.41
2022-10-06T14:56:54.274Z,100610.47
2022-10-06T14:59:22.837Z,100607.63
2022-10-06T15:01:52.687Z,100598.91
2022-10-06T15:04:24.341Z,100603.41
2022-10-06T15:07:09.751Z,100601.69
2022-10-06T15:09:37.802Z,100599.06
2022-10-06T15:12:06.049Z,100597.41
2022-10-06T15:14:39.405Z,100591.16
2022-10-06T15:17:08.710Z,100591.16
2022-10-06T15:19:36.684Z,100591.19
2022-10-06T15:22:06.439Z,100585.88
2022-10-06T15:24:34.474Z,100588.56
2022-10-06T15:27:24.533Z,100583.22
2022-10-06T15:29:53.000Z,100587.66
2022-10-06T15:32:22.603Z,100584.97
2022-10-06T15:34:52.394Z,100586.72
2022-10-06T15:37:20.367Z,100581.31
2022-10-06T15:39:48.448Z,100576.97
2022-10-06T15:42:18.776Z,100577.88
2022-10-06T15:44:51.397Z,100576.94
2022-10-06T15:47:19.451Z,100567.19
2022-10-06T15:49:51.556Z,100567.16
2022-10-06T15:52:23.007Z,100569.84
2022-10-06T15:54:51.975Z,100567.13
2022-10-06T15:57:21.421Z,100571.56
2022-10-06T15:59:49.832Z,100560.97
2022-10-06T16:02:19.925Z,100560.03
2022-10-06T16:05:25.373Z,100565.28
2022-10-06T16:07:53.328Z,100559.84
2022-10-06T16:10:21.254Z,100550.97
2022-10-06T16:12:49.215Z,100550.09
2022-10-06T16:15:17.326Z,100544.78
2022-10-06T16:17:45.262Z,100545.69
2022-10-06T16:20:16.637Z,100542.78
2022-10-06T16:22:44.574Z,100543.50
2022-10-06T16:25:12.733Z,100539.25
2022-10-06T16:27:40.845Z,100537.47
2022-10-06T16:30:10.401Z,100544.59
2022-10-06T16:32:38.525Z,100538.25
2022-10-06T16:35:07.786Z,100536.53
2022-10-06T16:37:37.200Z,100542.75
2022-10-06T16:40:06.072Z,100544.56
2022-10-06T16:42:34.033Z,100530.31
2022-10-06T16:45:01.993Z,100534.75
2022-10-06T16:47:29.997Z,100535.63
2022-10-06T16:49:57.984Z,100535.69
2022-10-06T16:52:25.920Z,100538.28
2022-10-06T16:54:56.163Z,100538.28
2022-10-06T16:57:25.487Z,100532.03
2022-10-06T16:59:53.455Z,100531.06
2022-10-06T17:02:21.433Z,100532.91
2022-10-06T17:04:49.428Z,100531.97
2022-10-06T17:07:17.368Z,100539.06
2022-10-06T17:09:56.024Z,100538.03
2022-10-06T17:12:34.788Z,100531.81
2022-10-06T17:15:02.883Z,100530.88
2022-10-06T17:17:30.814Z,100533.41
2022-10-06T17:19:58.793Z,100540.47
2022-10-06T17:22:26.767Z,100536.06
2022-10-06T17:24:56.136Z,100541.28
2022-10-06T17:27:28.547Z,100541.88
2022-10-06T17:29:57.865Z,100544.59
2022-10-06T17:32:25.944Z,100544.59
2022-10-06T17:34:55.312Z,100541.88
2022-10-06T17:37:23.372Z,100541.88
2022-10-06T17:39:51.345Z,100544.34
2022-10-06T17:42:19.356Z,100543.34
2022-10-06T17:44:47.273Z,100542.53
2022-10-06T17:47:16.571Z,100546.13
2022-10-06T17:49:44.892Z,100538.19
2022-10-06T17:52:12.905Z,100537.34
2022-10-06T17:54:41.624Z,100535.56
2022-10-06T17:57:10.106Z,100537.38
2022-10-06T17:59:38.221Z,100545.25
2022-10-06T18:02:07.285Z,100543.06
2022-10-06T18:04:38.031Z,100535.28
2022-10-06T18:07:06.247Z,100542.25
2022-10-06T18:09:34.212Z,100540.50
2022-10-06T18:12:02.635Z,100539.41
2022-10-06T18:14:33.562Z,100543.13
2022-10-06T18:17:03.920Z,100545.88
2022-10-06T18:19:34.001Z,100544.88
2022-10-06T18:22:10.477Z,100553.81
2022-10-06T18:24:39.993Z,100540.63
2022-10-06T18:27:08.493Z,100535.16
2022-10-06T18:29:39.072Z,100537.00
2022-10-06T18:37:45.555Z,100540.06
2022-10-06T18:40:14.794Z,100532.16
2022-10-06T18:42:42.746Z,100530.00
2022-10-06T18:45:34.275Z,100537.59
2022-10-06T18:48:23.060Z,100535.41
2022-10-06T18:51:00.519Z,100541.69
2022-10-06T18:53:39.128Z,100539.22
2022-10-06T18:56:08.792Z,100542.69
2022-10-06T18:58:40.564Z,100537.50
2022-10-06T19:01:09.136Z,100532.22
2022-10-06T19:03:39.838Z,100535.66
2022-10-06T19:06:08.941Z,100539.06
2022-10-06T19:08:38.309Z,100535.38
2022-10-06T19:11:25.102Z,100531.91
2022-10-06T19:13:57.866Z,100530.38
2022-10-06T19:16:26.151Z,100525.66
2022-10-06T19:18:54.972Z,100518.66
2022-10-06T19:21:22.941Z,100528.25
2022-10-06T19:23:52.312Z,100526.31
2022-10-06T19:26:22.769Z,100524.56
2022-10-06T19:28:53.598Z,100528.81
2022-10-06T19:31:22.396Z,100522.41
2022-10-06T19:33:50.763Z,100531.03
2022-10-06T19:36:18.777Z,100524.13
2022-10-06T19:38:46.898Z,100524.16
2022-10-06T19:41:33.640Z,100518.53
2022-10-06T19:44:03.348Z,100524.19
2022-10-06T19:46:31.631Z,100511.59
2022-10-06T19:49:05.532Z,100516.66
2022-10-06T19:51:34.566Z,100517.88
2022-10-06T19:54:03.523Z,100524.84
2022-10-06T19:56:33.297Z,100523.06
2022-10-06T19:59:01.923Z,100528.38
2022-10-06T20:01:31.264Z,100521.28
2022-10-06T20:04:00.619Z,100515.84
2022-10-06T20:06:30.477Z,100513.47
2022-10-06T20:09:05.529Z,100512.38
2022-10-06T20:11:36.041Z,100505.72
2022-10-06T20:14:06.104Z,100508.13
2022-10-06T20:16:34.317Z,100511.06
2022-10-06T20:19:02.351Z,100508.50
2022-10-06T20:21:31.411Z,100510.78
2022-10-06T20:24:01.439Z,100505.31
2022-10-06T20:26:32.800Z,100506.38
2022-10-06T20:29:04.812Z,100502.28
2022-10-06T20:31:35.183Z,100508.66
2022-10-06T20:34:07.092Z,100498.59
2022-10-06T20:36:36.711Z,100500.16
2022-10-06T20:39:22.899Z,100489.88
2022-10-06T20:41:51.184Z,100490.47
2022-10-06T20:44:21.012Z,100497.63
2022-10-06T20:46:48.959Z,100495.69
2022-10-06T20:49:18.600Z,100492.97
2022-10-06T20:51:51.456Z,100492.09
2022-10-06T20:54:20.700Z,100492.03
2022-10-06T20:56:50.183Z,100487.50
2022-10-06T20:59:19.044Z,100479.25
2022-10-06T21:01:51.118Z,100481.81
2022-10-06T21:04:20.429Z,100480.50
2022-10-06T21:06:48.836Z,100467.16
2022-10-06T21:09:19.031Z,100468.53
2022-10-06T21:11:48.189Z,100458.78
2022-10-06T21:14:17.578Z,100461.59
2022-10-06T21:16:47.213Z,100468.50
2022-10-06T21:19:19.410Z,100463.19
2022-10-06T21:21:50.731Z,100469.91
2022-10-06T21:24:18.803Z,100468.44
2022-10-06T21:26:47.042Z,100460.53
2022-10-06T21:29:16.243Z,100466.09
2022-10-06T21:31:45.256Z,100465.41
2022-10-06T21:34:14.475Z,100456.50
2022-10-06T21:36:44.472Z,100461.84
2022-10-06T21:39:14.493Z,100462.84
2022-10-06T21:41:42.486Z,100463.56
2022-10-06T21:44:12.026Z,100455.28
2022-10-06T21:46:41.712Z,100451.84
2022-10-06T21:49:12.759Z,100447.59
2022-10-06T21:51:44.116Z,100446.63
2022-10-06T21:54:12.323Z,100449.16
2022-10-06T21:56:41.112Z,100443.72
2022-10-06T21:59:09.528Z,100444.81
2022-10-06T22:01:39.202Z,100430.84
2022-10-06T22:04:07.277Z,100430.81
2022-10-06T22:06:37.635Z,100425.56
2022-10-06T22:09:09.558Z,100439.47
2022-10-06T22:11:39.924Z,100428.38
2022-10-06T22:14:09.979Z,100432.13
2022-10-06T22:16:40.877Z,100420.56
2022-10-06T22:19:12.290Z,100419.25
2022-10-06T22:21:42.510Z,100418.28
2022-10-06T22:24:13.442Z,100415.81
2022-10-06T22:26:43.149Z,100417.31
2022-10-06T22:29:12.700Z,100414.03
2022-10-06T22:31:43.255Z,100401.41
2022-10-06T22:34:12.680Z,100405.84
2022-10-06T22:36:41.186Z,100397.06
2022-10-06T22:39:09.567Z,100390.63
2022-10-06T22:41:39.022Z,100404.44
2022-10-06T22:44:07.106Z,100398.44
2022-10-06T22:46:37.341Z,100400.97
2022-10-06T22:49:06.382Z,100396.50
2022-10-06T22:51:34.620Z,100396.19
2022-10-06T22:54:02.976Z,100395.34
2022-10-06T22:56:32.703Z,100390.66
2022-10-06T22:59:03.012Z,100398.03
2022-10-06T23:01:31.402Z,100389.16
2022-10-06T23:03:59.607Z,100391.72
2022-10-06T23:06:29.831Z,100385.75
2022-10-06T23:08:58.131Z,100374.25
2022-10-06T23:11:26.425Z,100376.81
2022-10-06T23:13:54.400Z,100372.56
2022-10-06T23:16:24.124Z,100374.22
2022-10-06T23:18:52.417Z,100371.72
2022-10-06T23:21:22.720Z,100370.91
2022-10-06T23:23:52.786Z,100368.41
2022-10-06T23:26:22.027Z,100368.34
2022-10-06T23:28:53.255Z,100367.47
2022-10-06T23:31:21.278Z,100361.19
2022-10-06T23:33:50.812Z,100355.88
2022-10-06T23:36:19.524Z,100350.41
2022-10-06T23:38:48.168Z,100348.69
2022-10-06T23:41:16.846Z,100351.19
2022-10-06T23:43:45.046Z,100345.94
2022-10-06T23:46:13.391Z,100346.75
2022-10-06T23:48:41.477Z,100338.84
2022-10-06T23:51:12.855Z,100335.47
2022-10-06T23:53:41.222Z,100342.34
2022-10-06T23:56:09.525Z,100338.97
2022-10-06T23:58:38.135Z,100336.13
